Rejestracja

Wszystkie dane podawane są w czasie UTC za wyjątkiem miejsc gdzie jest jednoznacznie podane, że jest inaczej. Dane podawane w serwisie mają charakter informacyjny!!!
Informacje w sprawie dostępu do serwisu pod numerem tel. +48 261-828-138
Informacja dla żołnierzy i pracowników wojska: Prosimy o niezwłoczną zmianę adresu e-mail w profilu użytkownika na pocztę w domenie @ron.mil.pl

Aktualna Pogoda
 
Pogoda w Polsce
11°C Szczecin 16°C Suwałki 17°C Warszawa 16°C Poznan
17°C Opole 16°C Kraków 15°C Rzeszów
Więcej miast w Polsce

Pogoda w Europie
14°C Berlin 16°C Paryz 13°C Bruksela 7°C Oslo
16°C Praga 17°C Zagrzeb
Więcej miast w Europie

Metary wojskowe test
METAR EPBC 281500Z 06002KT CAVOK 18/M08 Q1014=
METAR EPCE 281500Z 35009KT CAVOK 14/M03 Q1015 RMK 137 032 0/0=
METAR EPDA 281500Z 04005KT 330V070 9999 BKN117 08/03 Q1016 RMK 080 070 6/6=
METAR EPDE 281500Z 07004KT 9999 BKN200 18/M05 Q1013 RMK 181 020 6/6=
METAR EPKS 281500Z 31004KT 9999 NSC 17/M04 Q1014 RMK 172 024 0/0=
METAR EPLK 281500Z VRB02KT 9999 NSC 17/M06 Q1013 RMK 167 021 0/0=
METAR EPLY 281500Z 07004KT 9999 NSC 17/M05 Q1013 RMK 168 023 0/0=
METAR EPMB 281500Z 02005KT 9999 NSC 16/M03 Q1015 RMK 158 028 0/0=
METAR EPMI 281500Z VRB04KT 9999 SCT070 16/M01 Q1015 RMK 159 032 3/3=
METAR EPMM 281500Z 09006KT 9999 FEW200 16/M08 Q1014 RMK 161 018 2/2=
METAR EPOK 281500Z 01006KT CAVOK 09/01 Q1015 RMK 090 057 0/0=
METAR EPPR 281500Z 04008KT 9999 FEW100 15/M02 Q1015 RMK 146 032 1/1=
METAR EPPW 281500Z 07004KT 9999 NSC 17/M06 Q1014 RMK 168 020 0/0=
METAR EPSN 281500Z 35010KT 310V040 9999 SCT080 12/M00 Q1015 RMK 119 043 4/4=
METAR EPTM 281500Z 10006KT 9999 NSC 17/M04 Q1013 RMK 168 024 0/0=


 

Prawa autorskie©2007 SSH SZ RP. Wszelkie prawa zastrzeżone.